createdAt,value
2022-10-24T00:02:15.503Z,9.45
2022-10-24T00:07:55.418Z,9.45
2022-10-24T00:13:35.539Z,9.43
2022-10-24T00:19:15.416Z,9.42
2022-10-24T00:24:55.460Z,9.44
2022-10-24T00:30:35.461Z,9.47
2022-10-24T00:36:15.546Z,9.49
2022-10-24T00:42:05.461Z,9.53
2022-10-24T00:47:45.744Z,9.51
2022-10-24T00:53:27.451Z,9.48
2022-10-24T00:59:10.527Z,9.49
2022-10-24T01:04:51.479Z,9.51
2022-10-24T01:10:49.417Z,9.52
2022-10-24T01:16:35.455Z,9.57
2022-10-24T01:22:19.498Z,9.60
2022-10-24T01:28:10.454Z,9.62
2022-10-24T01:33:54.499Z,9.66
2022-10-24T01:39:39.569Z,9.68
2022-10-24T01:45:25.545Z,9.67
2022-10-24T01:51:09.462Z,9.67
2022-10-24T01:56:49.440Z,9.65
2022-10-24T02:02:35.441Z,9.66
2022-10-24T02:08:18.727Z,9.70
2022-10-24T02:14:03.631Z,9.68
2022-10-24T02:19:44.511Z,9.66
2022-10-24T02:25:30.514Z,9.66
2022-10-24T02:31:14.527Z,9.69
2022-10-24T02:36:57.690Z,9.73
2022-10-24T02:42:39.530Z,9.75
2022-10-24T02:48:23.565Z,9.71
2022-10-24T02:54:07.694Z,9.70
2022-10-24T02:59:47.578Z,9.71
2022-10-24T03:05:27.524Z,9.73
2022-10-24T03:11:07.542Z,9.72
2022-10-24T03:16:47.497Z,9.71
2022-10-24T03:22:30.617Z,9.72
2022-10-24T03:28:10.538Z,9.73
2022-10-24T03:33:50.580Z,9.73
2022-10-24T03:39:30.552Z,9.70
2022-10-24T03:45:17.559Z,9.70
2022-10-24T03:50:57.558Z,9.72
2022-10-24T03:56:37.498Z,9.73
2022-10-24T04:02:19.625Z,9.74
2022-10-24T04:07:59.613Z,9.72
2022-10-24T04:13:39.535Z,9.73
2022-10-24T04:19:19.604Z,9.72
2022-10-24T04:24:59.570Z,9.72
2022-10-24T04:30:39.587Z,9.74
2022-10-24T04:36:20.673Z,9.76
2022-10-24T04:42:05.683Z,9.76
2022-10-24T04:47:45.852Z,9.73
2022-10-24T04:53:26.579Z,9.72
2022-10-24T04:59:06.541Z,9.74
2022-10-24T05:04:46.721Z,9.78
2022-10-24T05:10:27.752Z,9.83
2022-10-24T05:16:07.569Z,9.84
2022-10-24T05:21:47.678Z,9.84
2022-10-24T05:27:30.559Z,9.87
2022-10-24T05:33:10.608Z,9.92
2022-10-24T05:38:50.664Z,9.97
2022-10-24T05:44:30.699Z,10.00
2022-10-24T05:50:10.575Z,10.06
2022-10-24T05:55:50.593Z,10.13
2022-10-24T06:01:30.739Z,10.20
2022-10-24T06:07:10.637Z,10.25
2022-10-24T06:12:51.674Z,10.27
2022-10-24T06:18:29.758Z,10.31
2022-10-24T06:24:09.659Z,10.36
2022-10-24T06:29:49.691Z,10.40
2022-10-24T06:35:30.622Z,10.43
2022-10-24T06:41:10.631Z,10.45
2022-10-24T06:46:57.657Z,10.52
2022-10-24T06:52:41.685Z,10.54
2022-10-24T06:58:23.679Z,10.51
2022-10-24T07:04:05.815Z,10.47
2022-10-24T07:09:54.720Z,10.50
2022-10-24T07:15:34.703Z,10.50
2022-10-24T07:21:18.709Z,10.51
2022-10-24T07:26:58.790Z,10.53
2022-10-24T07:32:38.660Z,10.59
2022-10-24T07:38:18.940Z,10.62
2022-10-24T07:43:58.704Z,10.66
2022-10-24T07:49:38.680Z,10.70
2022-10-24T07:55:18.726Z,10.72
2022-10-24T08:00:58.932Z,10.70
2022-10-24T08:06:42.668Z,10.78
2022-10-24T08:12:25.821Z,10.91
2022-10-24T08:18:05.694Z,11.06
2022-10-24T08:23:46.721Z,11.21
2022-10-24T08:29:28.908Z,11.47
2022-10-24T08:35:08.730Z,11.66
2022-10-24T08:40:48.737Z,11.75
2022-10-24T08:46:51.680Z,11.89
2022-10-24T08:52:41.826Z,11.93
2022-10-24T08:58:26.754Z,11.87
2022-10-24T09:04:08.746Z,11.96
2022-10-24T09:09:55.732Z,12.40
2022-10-24T09:15:39.759Z,12.76
2022-10-24T09:21:21.817Z,13.25
2022-10-24T09:27:02.983Z,13.82
2022-10-24T09:32:44.773Z,14.33
2022-10-24T09:38:47.703Z,14.98
2022-10-24T09:44:45.737Z,15.35
2022-10-24T09:50:37.758Z,15.28
2022-10-24T09:56:24.882Z,15.16
2022-10-24T10:02:04.899Z,15.15
2022-10-24T10:07:47.074Z,15.26
2022-10-24T10:13:37.781Z,15.34
2022-10-24T10:19:26.770Z,15.53
2022-10-24T10:25:11.261Z,15.59
2022-10-24T10:30:50.839Z,15.60
2022-10-24T10:36:34.799Z,15.72
2022-10-24T10:42:21.771Z,16.06
2022-10-24T10:48:15.817Z,16.42
2022-10-24T10:54:04.866Z,16.76
2022-10-24T10:59:54.770Z,16.95
2022-10-24T11:05:46.810Z,17.10
2022-10-24T11:11:34.814Z,17.05
2022-10-24T11:17:23.800Z,16.93
2022-10-24T11:23:07.794Z,17.04
2022-10-24T11:28:54.814Z,17.16
2022-10-24T11:34:38.803Z,17.12
2022-10-24T11:40:24.950Z,17.10
2022-10-24T11:46:11.790Z,17.20
2022-10-24T11:51:55.903Z,17.23
2022-10-24T11:57:39.924Z,17.24
2022-10-24T12:03:52.919Z,17.33
2022-10-24T12:09:58.983Z,17.59
2022-10-24T12:15:54.866Z,18.20
2022-10-24T12:21:37.799Z,18.91
2022-10-24T12:27:20.833Z,19.47
2022-10-24T12:33:02.798Z,19.63
2022-10-24T12:39:19.939Z,19.69
2022-10-24T12:45:02.829Z,19.74
2022-10-24T12:51:12.910Z,19.57
2022-10-24T12:57:39.858Z,19.46
2022-10-24T13:03:27.842Z,19.20
2022-10-24T13:09:29.838Z,19.00
2022-10-24T13:15:32.827Z,18.99
2022-10-24T13:21:29.917Z,18.98
2022-10-24T13:27:36.879Z,19.02
2022-10-24T13:33:50.898Z,19.02
2022-10-24T13:39:40.368Z,18.92
2022-10-24T13:45:39.979Z,18.74
2022-10-24T13:51:27.997Z,18.41
2022-10-24T13:57:07.936Z,18.11
2022-10-24T14:02:52.917Z,18.01
2022-10-24T14:08:39.956Z,17.86
2022-10-24T14:14:26.910Z,17.62
2022-10-24T14:20:10.967Z,17.39
2022-10-24T14:25:53.237Z,17.19
2022-10-24T14:31:37.899Z,17.03
2022-10-24T14:37:22.928Z,16.82
2022-10-24T14:43:03.950Z,16.53
2022-10-24T14:48:44.996Z,16.25
2022-10-24T14:54:33.175Z,15.99
2022-10-24T15:06:10.969Z,15.57
2022-10-24T15:11:53.910Z,15.42
2022-10-24T15:17:41.892Z,15.19
2022-10-24T15:23:33.039Z,14.88
2022-10-24T15:29:21.978Z,14.57
2022-10-24T15:35:01.942Z,14.37
2022-10-24T15:40:43.959Z,14.13
2022-10-24T15:46:24.216Z,13.87
2022-10-24T15:52:05.967Z,13.64
2022-10-24T15:57:52.938Z,13.45
2022-10-24T16:03:35.972Z,13.25
2022-10-24T16:09:15.924Z,13.03
2022-10-24T16:14:55.995Z,12.85
2022-10-24T16:20:36.960Z,12.67
2022-10-24T16:26:17.071Z,12.55
2022-10-24T16:31:58.026Z,12.47
2022-10-24T16:37:37.959Z,12.36
2022-10-24T16:43:19.018Z,12.28
2022-10-24T16:48:59.074Z,12.15
2022-10-24T16:54:39.142Z,11.96
2022-10-24T17:00:22.007Z,11.79
2022-10-24T17:06:02.329Z,11.71
2022-10-24T17:11:46.239Z,11.64
2022-10-24T17:17:26.958Z,11.55
2022-10-24T17:23:07.148Z,11.43
2022-10-24T17:28:47.116Z,11.29
2022-10-24T17:34:26.986Z,11.23
2022-10-24T17:40:16.010Z,11.17
2022-10-24T17:45:57.068Z,11.11
2022-10-24T17:51:43.988Z,11.02
2022-10-24T17:57:24.003Z,10.98
2022-10-24T18:03:05.028Z,10.95
2022-10-24T18:08:45.079Z,10.86
2022-10-24T18:14:25.108Z,10.76
2022-10-24T18:20:05.042Z,10.72
2022-10-24T18:25:45.047Z,10.68
2022-10-24T18:31:27.036Z,10.58
2022-10-24T18:37:07.125Z,10.55
2022-10-24T18:42:57.128Z,10.61
2022-10-24T18:48:38.192Z,10.64
2022-10-24T18:54:21.070Z,10.59
2022-10-24T19:00:10.098Z,10.63
2022-10-24T19:05:58.130Z,10.70
2022-10-24T19:11:38.072Z,10.74
2022-10-24T19:17:21.119Z,10.85
2022-10-24T19:23:01.070Z,10.89
2022-10-24T19:28:41.161Z,10.87
2022-10-24T19:34:22.072Z,10.87
2022-10-24T19:40:02.070Z,10.89
2022-10-24T19:45:49.996Z,10.89
2022-10-24T19:51:33.074Z,10.92
2022-10-24T19:57:13.113Z,10.90
2022-10-24T20:02:53.069Z,10.88
2022-10-24T20:08:33.068Z,10.99
2022-10-24T20:14:13.171Z,11.13
2022-10-24T20:19:53.091Z,11.21
2022-10-24T20:25:33.287Z,11.34
2022-10-24T20:31:13.279Z,11.52
2022-10-24T20:36:55.080Z,11.58
2022-10-24T20:42:35.085Z,11.66
2022-10-24T20:48:15.136Z,11.70
2022-10-24T20:53:57.213Z,11.70
2022-10-24T20:59:37.171Z,11.76
2022-10-24T21:05:18.350Z,11.80
2022-10-24T21:10:58.142Z,11.80
2022-10-24T21:16:39.216Z,11.90
2022-10-24T21:22:17.162Z,12.03
2022-10-24T21:27:57.177Z,12.05
2022-10-24T21:33:37.218Z,11.99
2022-10-24T21:39:19.178Z,11.95
2022-10-24T21:44:59.191Z,11.93
2022-10-24T21:50:39.279Z,12.00
2022-10-24T21:56:21.360Z,12.11
2022-10-24T22:02:08.260Z,12.11
2022-10-24T22:07:50.400Z,12.10
2022-10-24T22:13:39.335Z,12.16
2022-10-24T22:19:24.278Z,12.32
2022-10-24T22:25:04.473Z,12.53
2022-10-24T22:30:49.325Z,12.84
2022-10-24T22:36:38.306Z,13.17
2022-10-24T22:42:25.374Z,13.42
2022-10-24T22:48:21.299Z,13.50
2022-10-24T22:54:01.213Z,13.54
2022-10-24T22:59:42.258Z,13.64
2022-10-24T23:05:33.301Z,13.81
2022-10-24T23:11:14.282Z,14.01
2022-10-24T23:17:03.246Z,14.13
2022-10-24T23:22:48.438Z,14.17
2022-10-24T23:28:43.429Z,14.13
2022-10-24T23:34:24.330Z,14.15
2022-10-24T23:40:05.260Z,14.12
2022-10-24T23:45:50.362Z,14.03
2022-10-24T23:51:37.390Z,13.96
2022-10-24T23:57:25.346Z,13.91
